Time;durP1;ratioP1;P1;durP2;ratioP2;P2;SDS_P1;SDS_P2;PMS_P1;PMS_P2;Temp;Humidity;BMP_temperature;BMP_pressure;BME280_temperature;BME280_humidity;BME280_pressure;Samples;Min_cycle;Max_cycle;Signal;HPM_P1;HPM_P2
2024/03/19 00:02:30;;;;;;;;;;;;;;;2.62;69.59;100818.83;111013;1272;22342;-88
2024/03/19 00:05:37;;;;;;;;;;;;;;;2.61;69.66;100822.70;111176;1272;22244;-88
2024/03/19 00:08:29;;;;;;;;;;;;;;;2.61;69.48;100824.42;111150;1272;22258;-88
2024/03/19 00:21:30;;;;;;;;;;;;;;;2.59;69.51;100827.29;111221;1271;22269;-87
2024/03/19 00:24:24;;;;;;;;;;;;;;;2.61;69.59;100827.34;111227;1272;22253;-87
2024/03/19 00:31:01;;;;;;;;;;;;;;;2.61;69.62;100822.52;111210;1272;23041;-88
2024/03/19 00:33:54;;;;;;;;;;;;;;;2.61;69.66;100822.54;110962;1272;22306;-88
2024/03/19 00:36:52;;;;;;;;;;;;;;;2.58;69.73;100821.77;110974;1270;22237;-88
2024/03/19 00:44:28;;;;;;;;;;;;;;;2.59;69.84;100818.94;111179;1272;22447;-88
2024/03/19 00:47:20;;;;;;;;;;;;;;;2.59;69.99;100824.45;111019;1272;22167;-88
2024/03/19 00:50:31;;;;;;;;;;;;;;;2.60;69.99;100821.36;111040;1272;23046;-88
2024/03/19 00:53:24;;;;;;;;;;;;;;;2.59;70.12;100823.19;111217;1272;22812;-88
2024/03/19 00:56:47;;;;;;;;;;;;;;;2.57;70.19;100819.50;111188;1272;22368;-89
2024/03/19 01:00:08;;;;;;;;;;;;;;;2.57;70.35;100816.67;111203;1272;22445;-87
2024/03/19 01:03:08;;;;;;;;;;;;;;;2.56;70.49;100815.89;110998;1272;22298;-88
2024/03/19 01:06:17;;;;;;;;;;;;;;;2.56;70.54;100813.61;111198;1269;22270;-88
2024/03/19 01:09:56;;;;;;;;;;;;;;;2.57;70.59;100816.73;111181;1272;22325;-88
2024/03/19 01:12:50;;;;;;;;;;;;;;;2.60;70.71;100815.61;111145;1272;22282;-88
2024/03/19 01:15:44;;;;;;;;;;;;;;;2.60;70.61;100818.38;111188;1272;23151;-90
2024/03/19 01:18:35;;;;;;;;;;;;;;;2.59;70.70;100809.95;111082;1272;22860;-89
2024/03/19 01:21:46;;;;;;;;;;;;;;;2.57;70.79;100807.92;111186;1272;22205;-88
2024/03/19 01:25:27;;;;;;;;;;;;;;;2.56;70.93;100807.62;111204;1272;22276;-89
2024/03/19 01:28:21;;;;;;;;;;;;;;;2.56;70.94;100808.10;111194;1272;22308;-88
2024/03/19 01:31:28;;;;;;;;;;;;;;;2.55;71.00;100810.39;111188;1272;22307;-88
2024/03/19 01:34:51;;;;;;;;;;;;;;;2.55;71.15;100809.36;111094;1272;22438;-90
2024/03/19 01:37:59;;;;;;;;;;;;;;;2.54;71.18;100813.80;110927;1274;23018;-87
2024/03/19 01:40:54;;;;;;;;;;;;;;;2.53;71.16;100815.54;110954;1274;22282;-88
2024/03/19 01:43:50;;;;;;;;;;;;;;;2.52;71.21;100819.34;110924;1274;22283;-90
2024/03/19 01:47:36;;;;;;;;;;;;;;;2.50;71.33;100821.31;111034;1274;22387;-89
2024/03/19 01:51:17;;;;;;;;;;;;;;;2.48;71.57;100821.48;111101;1274;22315;-89
2024/03/19 01:55:10;;;;;;;;;;;;;;;2.48;71.62;100821.33;110983;1273;23261;-88
2024/03/19 01:58:22;;;;;;;;;;;;;;;2.48;71.67;100823.30;110950;1274;22275;-90
2024/03/19 02:01:41;;;;;;;;;;;;;;;2.50;71.82;100822.73;110978;1274;22822;-87
2024/03/19 02:05:04;;;;;;;;;;;;;;;2.50;71.89;100820.91;110938;1274;22342;-90
2024/03/19 02:08:01;;;;;;;;;;;;;;;2.46;71.95;100824.02;110975;1274;22150;-88
2024/03/19 02:11:41;;;;;;;;;;;;;;;2.47;71.98;100816.39;110940;1274;22381;-91
2024/03/19 02:14:50;;;;;;;;;;;;;;;2.47;72.02;100823.62;111022;1274;22182;-89
2024/03/19 02:18:12;;;;;;;;;;;;;;;2.46;72.25;100824.98;111000;1274;22376;-88
2024/03/19 02:21:10;;;;;;;;;;;;;;;2.45;72.43;100819.80;110945;1274;22272;-89
2024/03/19 02:24:21;;;;;;;;;;;;;;;2.44;72.40;100820.05;110920;1273;22377;-88
2024/03/19 02:27:45;;;;;;;;;;;;;;;2.42;72.51;100825.11;110797;1274;22276;-89
2024/03/19 02:31:02;;;;;;;;;;;;;;;2.37;72.54;100825.23;110978;1273;22257;-90
2024/03/19 02:34:13;;;;;;;;;;;;;;;2.39;72.65;100821.91;110932;1274;23168;-88
2024/03/19 02:37:24;;;;;;;;;;;;;;;2.40;72.63;100829.14;110955;1274;23309;-89
2024/03/19 02:40:21;;;;;;;;;;;;;;;2.40;72.68;100834.25;110943;1274;23521;-89
2024/03/19 02:43:16;;;;;;;;;;;;;;;2.43;72.66;100833.27;110902;1273;22267;-88
2024/03/19 02:46:33;;;;;;;;;;;;;;;2.44;72.68;100833.27;110978;1273;23033;-89
2024/03/19 02:49:53;;;;;;;;;;;;;;;2.45;72.74;100839.23;110943;1273;22360;-89
2024/03/19 02:53:04;;;;;;;;;;;;;;;2.47;72.78;100835.44;110923;1273;22205;-89
2024/03/19 02:58:35;;;;;;;;;;;;;;;2.50;72.87;100833.21;105970;1310;542267;-88
2024/03/19 03:01:29;;;;;;;;;;;;;;;2.45;72.94;100835.77;109163;1278;25295;-88
2024/03/19 03:05:03;;;;;;;;;;;;;;;2.47;73.20;100842.45;109151;1278;22504;-88
2024/03/19 03:08:18;;;;;;;;;;;;;;;2.51;73.26;100846.02;109345;1274;22500;-89
2024/03/19 03:11:11;;;;;;;;;;;;;;;2.53;73.31;100844.90;105535;1272;5078069;-87
2024/03/19 03:14:11;;;;;;;;;;;;;;;2.51;73.11;100843.81;109547;1269;22499;-87
2024/03/19 03:17:15;;;;;;;;;;;;;;;2.51;73.22;100846.89;109796;1272;22545;-88
2024/03/19 03:20:20;;;;;;;;;;;;;;;2.50;73.27;100850.21;109477;1272;22490;-87
2024/03/19 03:23:41;;;;;;;;;;;;;;;2.54;73.49;100856.86;109771;1270;22665;-87
2024/03/19 03:26:41;;;;;;;;;;;;;;;2.56;73.43;100861.24;109516;1271;25301;-85
2024/03/19 03:29:42;;;;;;;;;;;;;;;2.58;73.54;100858.71;109291;1271;25358;-87
2024/03/19 03:33:16;;;;;;;;;;;;;;;2.58;73.48;100863.52;109668;1271;22507;-89
2024/03/19 03:36:12;;;;;;;;;;;;;;;2.58;73.56;100860.52;109493;1271;22934;-87
2024/03/19 03:39:48;;;;;;;;;;;;;;;2.57;73.58;100870.29;109338;1272;24279;-87
2024/03/19 03:43:03;;;;;;;;;;;;;;;2.54;73.59;100869.14;109547;1272;22508;-88
2024/03/19 03:46:20;;;;;;;;;;;;;;;2.52;73.79;100875.79;109796;1272;22510;-87
2024/03/19 03:49:56;;;;;;;;;;;;;;;2.48;73.91;100880.39;109887;1272;22939;-89
2024/03/19 03:53:56;;;;;;;;;;;;;;;2.47;73.97;100885.13;109863;1267;24314;-88
2024/03/19 03:56:55;;;;;;;;;;;;;;;2.46;73.98;100887.11;109814;1269;22518;-88
2024/03/19 03:59:52;;;;;;;;;;;;;;;2.43;73.93;100885.86;110004;1269;22559;-89
2024/03/19 04:02:56;;;;;;;;;;;;;;;2.39;73.94;100889.69;110239;1269;25234;-88
2024/03/19 04:06:04;;;;;;;;;;;;;;;2.38;74.05;100892.06;109977;1269;22503;-87
2024/03/19 04:09:16;;;;;;;;;;;;;;;2.36;74.05;100895.77;109643;1269;23841;-89
2024/03/19 04:12:15;;;;;;;;;;;;;;;2.33;74.10;100897.30;109610;1269;22567;-87
2024/03/19 04:15:16;;;;;;;;;;;;;;;2.28;74.20;100903.80;109475;1269;22446;-88
2024/03/19 04:18:21;;;;;;;;;;;;;;;2.23;74.35;100905.98;109602;1269;22439;-87
2024/03/19 04:21:37;;;;;;;;;;;;;;;2.18;74.53;100906.02;109624;1269;23134;-87
2024/03/19 04:24:51;;;;;;;;;;;;;;;2.15;74.58;100912.17;109757;1266;22543;-86
2024/03/19 04:28:02;;;;;;;;;;;;;;;2.12;74.76;100908.42;109533;1269;22506;-87
2024/03/19 04:31:19;;;;;;;;;;;;;;;2.08;74.75;100911.29;109709;1269;22501;-89
2024/03/19 04:34:32;;;;;;;;;;;;;;;2.07;74.89;100913.19;109470;1269;22584;-86
2024/03/19 04:37:29;;;;;;;;;;;;;;;2.03;75.04;100914.16;109300;1269;22509;-87
2024/03/19 04:40:31;;;;;;;;;;;;;;;1.99;75.16;100914.73;109543;1269;23321;-87
2024/03/19 04:43:35;;;;;;;;;;;;;;;1.95;75.33;100916.26;109411;1269;25262;-87
2024/03/19 04:46:41;;;;;;;;;;;;;;;1.94;75.62;100922.55;108677;1269;22610;-80
2024/03/19 04:49:30;;;;;;;;;;;;;;;1.93;75.49;100922.09;108811;1265;22499;-81
2024/03/19 04:52:19;;;;;;;;;;;;;;;1.95;75.57;100926.80;108789;1265;24408;-80
2024/03/19 04:55:11;;;;;;;;;;;;;;;1.98;75.63;100929.77;108811;1266;24256;-81
2024/03/19 04:58:01;;;;;;;;;;;;;;;1.97;75.74;100932.36;108650;1266;22522;-80
2024/03/19 05:00:51;;;;;;;;;;;;;;;1.95;75.74;100931.44;108685;1263;22556;-80
2024/03/19 05:03:40;;;;;;;;;;;;;;;1.95;75.99;100931.84;108738;1264;22510;-80
2024/03/19 05:06:29;;;;;;;;;;;;;;;1.93;76.12;100930.74;108891;1260;22522;-81
2024/03/19 05:09:18;;;;;;;;;;;;;;;1.92;76.22;100932.64;108887;1260;22496;-80
2024/03/19 05:12:08;;;;;;;;;;;;;;;1.92;76.30;100941.85;108932;1260;23389;-80
2024/03/19 05:14:58;;;;;;;;;;;;;;;1.88;76.46;100946.21;108804;1268;22644;-80
2024/03/19 05:17:49;;;;;;;;;;;;;;;1.83;76.51;100947.48;108788;1261;22795;-79
2024/03/19 05:20:39;;;;;;;;;;;;;;;1.83;76.61;100948.83;108663;1266;22621;-80
2024/03/19 05:23:28;;;;;;;;;;;;;;;1.83;76.68;100953.77;108788;1268;22597;-80
2024/03/19 05:26:17;;;;;;;;;;;;;;;1.83;76.89;100954.73;108741;1254;25335;-81
2024/03/19 05:29:07;;;;;;;;;;;;;;;1.85;76.86;100959.27;108866;1268;22616;-81
2024/03/19 05:31:57;;;;;;;;;;;;;;;1.87;76.96;100958.41;108836;1263;22587;-80
2024/03/19 05:34:46;;;;;;;;;;;;;;;1.86;77.08;100959.50;108944;1254;22485;-80
2024/03/19 05:37:35;;;;;;;;;;;;;;;1.85;77.14;100961.80;108852;1268;26227;-81
2024/03/19 05:40:24;;;;;;;;;;;;;;;1.87;77.14;100970.36;109301;1260;22503;-80
2024/03/19 05:43:14;;;;;;;;;;;;;;;1.88;77.20;100967.68;109538;1255;23223;-80
2024/03/19 05:46:03;;;;;;;;;;;;;;;1.89;77.18;100971.98;109371;1267;22521;-80
2024/03/19 05:48:52;;;;;;;;;;;;;;;1.91;77.36;100971.27;109274;1267;22539;-81
2024/03/19 05:51:42;;;;;;;;;;;;;;;1.96;77.40;100975.41;109265;1257;24141;-80
2024/03/19 05:54:31;;;;;;;;;;;;;;;2.00;77.42;100981.29;109711;1266;23128;-80
2024/03/19 05:57:21;;;;;;;;;;;;;;;2.03;77.53;100975.98;109373;1260;24390;-80
2024/03/19 06:00:13;;;;;;;;;;;;;;;2.02;77.52;100979.55;109524;1267;24518;-79
2024/03/19 06:03:02;;;;;;;;;;;;;;;2.02;77.66;100980.80;109516;1267;26629;-81
2024/03/19 06:05:53;;;;;;;;;;;;;;;2.05;77.93;100983.63;109284;1268;24227;-80
2024/03/19 06:08:43;;;;;;;;;;;;;;;2.09;77.90;100984.21;108514;1268;23302;-79
2024/03/19 06:11:33;;;;;;;;;;;;;;;2.08;77.89;100986.66;109396;1262;22525;-79
2024/03/19 06:14:22;;;;;;;;;;;;;;;2.14;77.96;100985.13;109331;1264;22611;-80
2024/03/19 06:17:12;;;;;;;;;;;;;;;2.18;78.13;100990.06;109697;1267;25433;-80
2024/03/19 06:20:04;;;;;;;;;;;;;;;2.22;78.15;100986.73;109590;1260;22601;-80
2024/03/19 06:22:53;;;;;;;;;;;;;;;2.22;78.09;100987.36;108485;1264;23121;-80
2024/03/19 06:25:43;;;;;;;;;;;;;;;2.24;78.22;100986.73;109365;1266;22500;-80
2024/03/19 06:28:32;;;;;;;;;;;;;;;2.25;78.18;100990.17;109462;1267;22599;-80
2024/03/19 06:31:21;;;;;;;;;;;;;;;2.29;78.26;100988.41;109328;1256;22585;-79
2024/03/19 06:34:11;;;;;;;;;;;;;;;2.36;78.25;100984.97;109322;1256;22746;-80
2024/03/19 06:37:00;;;;;;;;;;;;;;;2.42;78.27;100987.84;109309;1267;23244;-79
2024/03/19 06:39:50;;;;;;;;;;;;;;;2.45;78.44;100989.39;109622;1268;25629;-80
2024/03/19 06:42:40;;;;;;;;;;;;;;;2.47;78.44;100993.55;109371;1268;22767;-80
2024/03/19 06:45:30;;;;;;;;;;;;;;;2.49;78.43;100994.09;109313;1260;22597;-79
2024/03/19 06:48:20;;;;;;;;;;;;;;;2.54;78.65;100993.18;109250;1260;22500;-80
2024/03/19 06:51:09;;;;;;;;;;;;;;;2.54;78.69;100994.67;109257;1260;22503;-80
2024/03/19 06:53:58;;;;;;;;;;;;;;;2.58;78.67;100998.49;109089;1268;22516;-80
2024/03/19 06:56:48;;;;;;;;;;;;;;;2.65;78.86;101000.95;109498;1268;25236;-80
2024/03/19 06:59:37;;;;;;;;;;;;;;;2.69;78.86;101004.08;109489;1262;22525;-80
2024/03/19 07:02:28;;;;;;;;;;;;;;;2.76;78.88;101005.27;109493;1266;24364;-80
2024/03/19 07:05:18;;;;;;;;;;;;;;;2.81;78.83;101007.98;109515;1267;25575;-80
2024/03/19 07:08:08;;;;;;;;;;;;;;;2.85;78.85;101011.50;109598;1268;22547;-79
2024/03/19 07:10:58;;;;;;;;;;;;;;;2.88;78.89;101011.07;109482;1267;25351;-80
2024/03/19 07:13:47;;;;;;;;;;;;;;;2.96;78.97;101015.02;109339;1263;25326;-80
2024/03/19 07:16:37;;;;;;;;;;;;;;;3.02;78.99;101014.09;109594;1267;22530;-80
2024/03/19 07:19:27;;;;;;;;;;;;;;;3.09;78.94;101017.64;109519;1266;22491;-80
2024/03/19 07:22:16;;;;;;;;;;;;;;;3.16;78.90;101017.66;109294;1266;24343;-80
2024/03/19 07:25:07;;;;;;;;;;;;;;;3.21;79.17;101017.36;109335;1268;23259;-80
2024/03/19 07:27:56;;;;;;;;;;;;;;;3.30;79.10;101017.97;109409;1265;22540;-80
2024/03/19 07:30:46;;;;;;;;;;;;;;;3.42;78.99;101024.88;109345;1266;22625;-80
2024/03/19 07:33:35;;;;;;;;;;;;;;;3.49;78.79;101027.07;109413;1260;22538;-80
2024/03/19 07:36:24;;;;;;;;;;;;;;;3.53;78.94;101030.82;109392;1260;24215;-80
2024/03/19 07:39:14;;;;;;;;;;;;;;;3.56;78.97;101031.48;109706;1267;22723;-81
2024/03/19 07:42:03;;;;;;;;;;;;;;;3.61;79.17;101030.32;109417;1253;24156;-81
2024/03/19 07:44:53;;;;;;;;;;;;;;;3.67;79.10;101032.21;109554;1268;22531;-81
2024/03/19 07:47:43;;;;;;;;;;;;;;;3.75;79.04;101029.45;109223;1268;22576;-82
2024/03/19 07:50:34;;;;;;;;;;;;;;;3.81;79.29;101029.52;109670;1268;22572;-81
2024/03/19 07:53:24;;;;;;;;;;;;;;;3.87;78.93;101035.44;109464;1257;22594;-81
2024/03/19 07:56:14;;;;;;;;;;;;;;;3.94;78.88;101033.45;109372;1265;22595;-81
2024/03/19 07:59:04;;;;;;;;;;;;;;;4.01;78.76;101036.98;109377;1268;22517;-81
2024/03/19 08:01:53;;;;;;;;;;;;;;;4.01;78.93;101038.23;109473;1260;25484;-81
2024/03/19 08:04:43;;;;;;;;;;;;;;;4.06;79.01;101041.35;109421;1260;22611;-81
2024/03/19 08:07:32;;;;;;;;;;;;;;;4.09;78.84;101040.98;109466;1268;24307;-82
2024/03/19 08:10:21;;;;;;;;;;;;;;;4.13;79.05;101049.38;109431;1266;22486;-81
2024/03/19 08:13:11;;;;;;;;;;;;;;;4.19;78.76;101047.55;109302;1267;23441;-82
2024/03/19 08:16:01;;;;;;;;;;;;;;;4.25;78.73;101046.60;109660;1266;22568;-81
2024/03/19 08:18:52;;;;;;;;;;;;;;;4.32;79.24;101051.01;109392;1267;25462;-81
2024/03/19 08:21:41;;;;;;;;;;;;;;;4.37;78.81;101049.05;109419;1266;22492;-81
2024/03/19 08:24:31;;;;;;;;;;;;;;;4.42;79.04;101047.15;109284;1266;22509;-82
2024/03/19 08:27:21;;;;;;;;;;;;;;;4.50;79.19;101048.52;111445;1268;22320;-82
2024/03/19 08:30:12;;;;;;;;;;;;;;;4.56;78.94;101053.34;111440;1266;23134;-82
2024/03/19 08:33:02;;;;;;;;;;;;;;;4.63;78.71;101053.54;111390;1260;22303;-82
2024/03/19 08:35:52;;;;;;;;;;;;;;;4.73;78.29;101056.45;111471;1266;22287;-82
2024/03/19 08:38:42;;;;;;;;;;;;;;;4.80;78.43;101057.69;111543;1266;23057;-82
2024/03/19 08:41:31;;;;;;;;;;;;;;;4.89;78.29;101057.08;111435;1268;22309;-82
2024/03/19 08:44:21;;;;;;;;;;;;;;;5.00;78.12;101053.64;111441;1260;22392;-82
2024/03/19 08:47:10;;;;;;;;;;;;;;;5.08;77.50;101055.45;111449;1267;22410;-82
2024/03/19 08:49:59;;;;;;;;;;;;;;;5.12;76.99;101053.27;111423;1268;22983;-82
2024/03/19 08:52:49;;;;;;;;;;;;;;;5.16;76.91;101055.83;111441;1268;22259;-82
2024/03/19 08:55:38;;;;;;;;;;;;;;;5.19;76.66;101058.61;111452;1268;23476;-83
2024/03/19 08:58:27;;;;;;;;;;;;;;;5.20;76.64;101062.63;111411;1260;22372;-82
2024/03/19 09:01:17;;;;;;;;;;;;;;;5.19;76.48;101062.17;111421;1260;23125;-82
2024/03/19 09:04:06;;;;;;;;;;;;;;;5.17;76.31;101063.48;111455;1261;22194;-82
2024/03/19 09:06:56;;;;;;;;;;;;;;;5.15;76.00;101066.58;111425;1268;22299;-83
2024/03/19 09:09:47;;;;;;;;;;;;;;;5.09;75.90;101065.89;111247;1268;22419;-82
2024/03/19 09:12:36;;;;;;;;;;;;;;;5.09;75.86;101068.12;111423;1268;22280;-82
2024/03/19 09:15:26;;;;;;;;;;;;;;;5.09;76.03;101067.39;111609;1266;22307;-82
2024/03/19 09:18:16;;;;;;;;;;;;;;;5.11;75.80;101062.08;111598;1266;22288;-82
2024/03/19 09:21:07;;;;;;;;;;;;;;;5.15;75.64;101062.79;111475;1265;22358;-82
2024/03/19 09:23:57;;;;;;;;;;;;;;;5.17;75.39;101064.89;111396;1260;22387;-83
2024/03/19 09:26:46;;;;;;;;;;;;;;;5.17;75.21;101063.87;111479;1257;22303;-82
2024/03/19 09:29:35;;;;;;;;;;;;;;;5.19;75.07;101065.08;111409;1268;22369;-82
2024/03/19 09:32:24;;;;;;;;;;;;;;;5.19;74.78;101066.83;111526;1265;22411;-82
2024/03/19 09:35:13;;;;;;;;;;;;;;;5.18;74.43;101068.34;111529;1257;22320;-82
2024/03/19 09:38:02;;;;;;;;;;;;;;;5.20;74.55;101066.96;111406;1268;22817;-82
2024/03/19 09:40:53;;;;;;;;;;;;;;;5.25;74.37;101068.39;111407;1265;22384;-82
2024/03/19 09:43:43;;;;;;;;;;;;;;;5.23;73.54;101070.80;111412;1267;22858;-82
2024/03/19 09:46:33;;;;;;;;;;;;;;;5.16;73.72;101070.45;111466;1266;22299;-82
2024/03/19 09:49:28;;;;;;;;;;;;;;;5.12;73.53;101075.95;111451;1260;22336;-82
2024/03/19 09:52:17;;;;;;;;;;;;;;;5.08;73.40;101077.30;111407;1267;22321;-82
2024/03/19 09:55:14;;;;;;;;;;;;;;;5.08;73.81;101078.25;111446;1253;22913;-82
2024/03/19 09:58:04;;;;;;;;;;;;;;;5.15;73.77;101075.52;111409;1260;22503;-82
2024/03/19 10:00:54;;;;;;;;;;;;;;;5.19;73.24;101074.75;111423;1268;22205;-82
2024/03/19 10:03:44;;;;;;;;;;;;;;;5.26;73.13;101068.98;111404;1268;22958;-82
2024/03/19 10:06:33;;;;;;;;;;;;;;;5.39;73.30;101070.58;111404;1265;22221;-82
2024/03/19 10:09:22;;;;;;;;;;;;;;;5.51;72.67;101073.43;111408;1266;23105;-82
2024/03/19 10:12:11;;;;;;;;;;;;;;;5.56;72.44;101069.45;111388;1266;23107;-82
2024/03/19 10:15:04;;;;;;;;;;;;;;;5.64;71.96;101071.20;111407;1265;22312;-82
2024/03/19 10:17:56;;;;;;;;;;;;;;;5.71;71.85;101070.98;111450;1268;22312;-82
2024/03/19 10:20:46;;;;;;;;;;;;;;;5.80;71.53;101069.06;111452;1257;22388;-83
2024/03/19 10:23:36;;;;;;;;;;;;;;;5.88;71.27;101069.41;111410;1268;22384;-82
2024/03/19 10:26:25;;;;;;;;;;;;;;;5.92;70.33;101065.52;111423;1263;22305;-82
2024/03/19 10:29:15;;;;;;;;;;;;;;;5.95;70.26;101064.27;111404;1268;22401;-82
2024/03/19 10:32:07;;;;;;;;;;;;;;;6.00;70.14;101068.85;111433;1268;22304;-82
2024/03/19 10:34:58;;;;;;;;;;;;;;;6.02;69.05;101069.42;111438;1265;23103;-83
2024/03/19 10:37:48;;;;;;;;;;;;;;;6.10;69.02;101072.98;111380;1262;23063;-82
2024/03/19 10:40:38;;;;;;;;;;;;;;;6.22;68.04;101075.66;111474;1263;22344;-82
2024/03/19 10:43:27;;;;;;;;;;;;;;;6.32;67.71;101075.98;111546;1260;22332;-82
2024/03/19 10:46:18;;;;;;;;;;;;;;;6.40;67.22;101077.62;111422;1268;22335;-82
2024/03/19 10:49:07;;;;;;;;;;;;;;;6.36;66.35;101074.08;111461;1267;22931;-82
2024/03/19 10:52:00;;;;;;;;;;;;;;;6.40;67.36;101078.02;111441;1268;22258;-83
2024/03/19 10:54:51;;;;;;;;;;;;;;;6.51;67.48;101075.33;111255;1268;22339;-82
2024/03/19 10:57:40;;;;;;;;;;;;;;;6.60;66.51;101073.52;111398;1256;22402;-82
2024/03/19 11:00:30;;;;;;;;;;;;;;;6.65;65.55;101070.10;111447;1266;22414;-82
2024/03/19 11:03:20;;;;;;;;;;;;;;;6.70;65.81;101069.73;111248;1268;22577;-82
2024/03/19 11:06:20;;;;;;;;;;;;;;;6.77;65.62;101073.20;111393;1260;22304;-82
2024/03/19 11:09:19;;;;;;;;;;;;;;;6.87;65.11;101071.14;111414;1266;22844;-82
2024/03/19 11:12:13;;;;;;;;;;;;;;;6.91;64.69;101074.38;111397;1261;23096;-82
2024/03/19 11:15:03;;;;;;;;;;;;;;;6.93;64.24;101076.23;111394;1268;22365;-83
2024/03/19 11:17:53;;;;;;;;;;;;;;;6.92;64.16;101072.27;111472;1257;22440;-83
2024/03/19 11:20:44;;;;;;;;;;;;;;;6.93;64.16;101071.77;111408;1262;23154;-83
2024/03/19 11:23:34;;;;;;;;;;;;;;;6.96;64.04;101070.67;111417;1256;22310;-83
2024/03/19 11:26:24;;;;;;;;;;;;;;;6.99;64.03;101073.22;111399;1264;22390;-83
2024/03/19 11:29:15;;;;;;;;;;;;;;;6.99;63.82;101073.14;111425;1268;22331;-83
2024/03/19 11:32:06;;;;;;;;;;;;;;;6.99;63.28;101073.95;111434;1258;22351;-82
2024/03/19 11:34:56;;;;;;;;;;;;;;;7.00;63.64;101075.34;111407;1260;22314;-83
2024/03/19 11:37:47;;;;;;;;;;;;;;;7.04;63.62;101075.00;111430;1266;23009;-83
2024/03/19 11:40:39;;;;;;;;;;;;;;;7.07;62.67;101072.14;111419;1268;22332;-83
2024/03/19 11:43:29;;;;;;;;;;;;;;;7.07;62.90;101070.73;111436;1260;22499;-83
2024/03/19 11:46:19;;;;;;;;;;;;;;;7.07;62.82;101063.73;111410;1268;22748;-83
2024/03/19 11:49:19;;;;;;;;;;;;;;;7.13;63.10;101065.63;111428;1257;23097;-83
2024/03/19 11:52:09;;;;;;;;;;;;;;;7.15;62.48;101061.13;111442;1267;22383;-83
2024/03/19 11:55:00;;;;;;;;;;;;;;;7.18;62.56;101061.39;111441;1267;22959;-83
2024/03/19 11:57:50;;;;;;;;;;;;;;;7.23;62.87;101058.06;111416;1269;22393;-83
2024/03/19 12:00:40;;;;;;;;;;;;;;;7.28;62.47;101053.34;111387;1268;22200;-83
2024/03/19 12:03:30;;;;;;;;;;;;;;;7.32;62.59;101049.83;111592;1266;22962;-83
2024/03/19 12:06:19;;;;;;;;;;;;;;;7.33;61.94;101050.98;111419;1267;22332;-83
2024/03/19 12:09:11;;;;;;;;;;;;;;;7.30;62.18;101046.77;111544;1267;23126;-82
2024/03/19 12:12:00;;;;;;;;;;;;;;;7.32;61.76;101051.73;111421;1266;22830;-83
2024/03/19 12:14:49;;;;;;;;;;;;;;;7.34;61.99;101044.45;111402;1266;22933;-83
2024/03/19 12:17:38;;;;;;;;;;;;;;;7.41;61.88;101047.19;111407;1269;22379;-83
2024/03/19 12:20:28;;;;;;;;;;;;;;;7.47;61.75;101045.70;111401;1262;22322;-82
2024/03/19 12:23:17;;;;;;;;;;;;;;;7.46;61.11;101044.77;111409;1266;23035;-83
2024/03/19 12:26:08;;;;;;;;;;;;;;;7.45;61.12;101040.84;111465;1266;22338;-84
2024/03/19 12:28:57;;;;;;;;;;;;;;;7.46;60.97;101035.88;111430;1265;22412;-83
2024/03/19 12:31:52;;;;;;;;;;;;;;;7.47;61.03;101034.17;111458;1268;22307;-83
2024/03/19 12:34:58;;;;;;;;;;;;;;;7.44;59.85;101034.43;111397;1268;22385;-83
2024/03/19 12:37:47;;;;;;;;;;;;;;;7.42;60.42;101035.36;111278;1266;22753;-83
2024/03/19 12:40:37;;;;;;;;;;;;;;;7.43;60.23;101033.36;111407;1265;22395;-83
2024/03/19 12:43:26;;;;;;;;;;;;;;;7.43;60.22;101034.54;111425;1264;22321;-83
2024/03/19 12:46:15;;;;;;;;;;;;;;;7.44;59.90;101032.61;111428;1267;22312;-83
2024/03/19 12:49:06;;;;;;;;;;;;;;;7.46;60.05;101030.96;111445;1268;22201;-82
2024/03/19 12:51:55;;;;;;;;;;;;;;;7.52;60.06;101029.30;111416;1261;22217;-83
2024/03/19 12:54:44;;;;;;;;;;;;;;;7.57;59.84;101023.36;111391;1269;22304;-83
2024/03/19 12:57:34;;;;;;;;;;;;;;;7.60;59.95;101021.13;111420;1268;22963;-82
2024/03/19 13:00:24;;;;;;;;;;;;;;;7.62;59.53;101018.69;111395;1268;22378;-82
2024/03/19 13:03:13;;;;;;;;;;;;;;;7.62;59.40;101020.82;111383;1269;22376;-83
2024/03/19 13:06:03;;;;;;;;;;;;;;;7.65;59.95;101017.73;111392;1264;22908;-82
2024/03/19 13:08:52;;;;;;;;;;;;;;;7.68;59.05;101018.34;111446;1268;22464;-82
2024/03/19 13:11:41;;;;;;;;;;;;;;;7.66;58.99;101009.58;111560;1266;22293;-83
2024/03/19 13:14:30;;;;;;;;;;;;;;;7.61;58.84;101003.39;111501;1267;22356;-83
2024/03/19 13:17:20;;;;;;;;;;;;;;;7.58;58.63;101009.58;111458;1268;23264;-83
2024/03/19 13:20:11;;;;;;;;;;;;;;;7.58;58.75;101010.92;111478;1267;22364;-83
2024/03/19 13:23:00;;;;;;;;;;;;;;;7.59;59.02;101007.34;111402;1268;22325;-82
2024/03/19 13:25:49;;;;;;;;;;;;;;;7.65;59.14;101006.84;111434;1265;22309;-83
2024/03/19 13:28:39;;;;;;;;;;;;;;;7.68;58.34;101006.67;111426;1267;22332;-82
2024/03/19 13:31:28;;;;;;;;;;;;;;;7.64;57.25;101003.29;111551;1260;23188;-83
2024/03/19 13:34:17;;;;;;;;;;;;;;;7.59;57.16;100999.40;111398;1264;22334;-83
2024/03/19 13:37:06;;;;;;;;;;;;;;;7.58;57.65;100995.94;111444;1267;22221;-83
2024/03/19 13:39:56;;;;;;;;;;;;;;;7.62;57.71;100993.59;111486;1267;22272;-83
2024/03/19 13:42:45;;;;;;;;;;;;;;;7.67;57.89;100993.45;111419;1269;22213;-82
2024/03/19 13:45:34;;;;;;;;;;;;;;;7.73;57.81;100991.91;111426;1269;22196;-82
2024/03/19 13:48:24;;;;;;;;;;;;;;;7.80;57.69;100989.24;111427;1266;22308;-83
2024/03/19 13:51:13;;;;;;;;;;;;;;;7.87;57.34;100995.21;111565;1264;22379;-83
2024/03/19 13:54:05;;;;;;;;;;;;;;;7.94;56.94;100990.91;111422;1264;23177;-83
2024/03/19 13:56:54;;;;;;;;;;;;;;;7.95;56.61;100988.39;111255;1264;23060;-83
2024/03/19 13:59:43;;;;;;;;;;;;;;;7.92;56.74;100992.05;111422;1256;23238;-83
2024/03/19 14:02:32;;;;;;;;;;;;;;;7.86;56.22;100993.04;111429;1267;22316;-83
2024/03/19 14:05:22;;;;;;;;;;;;;;;7.77;56.26;100996.16;111421;1268;22368;-83
2024/03/19 14:08:11;;;;;;;;;;;;;;;7.74;56.60;100994.35;111406;1267;22453;-83
2024/03/19 14:11:01;;;;;;;;;;;;;;;7.76;56.47;100994.95;111438;1260;22395;-83
2024/03/19 14:13:50;;;;;;;;;;;;;;;7.76;55.99;100990.89;111423;1266;23058;-83
2024/03/19 14:16:39;;;;;;;;;;;;;;;7.75;56.49;100987.95;111414;1267;22866;-83
2024/03/19 14:19:28;;;;;;;;;;;;;;;7.79;56.35;100983.90;111431;1261;22759;-83
2024/03/19 14:22:17;;;;;;;;;;;;;;;7.81;56.39;100983.89;111449;1260;22339;-82
2024/03/19 14:25:06;;;;;;;;;;;;;;;7.82;56.63;100987.21;111457;1261;22201;-82
2024/03/19 14:27:55;;;;;;;;;;;;;;;7.83;56.42;100983.67;111401;1268;22221;-82
2024/03/19 14:30:45;;;;;;;;;;;;;;;7.83;56.15;100983.45;111409;1265;22836;-82
2024/03/19 14:33:34;;;;;;;;;;;;;;;7.84;56.54;100989.21;111381;1269;22266;-83
2024/03/19 14:36:24;;;;;;;;;;;;;;;7.87;56.34;100983.08;111391;1264;22332;-83
2024/03/19 14:39:14;;;;;;;;;;;;;;;7.83;55.76;100985.59;111382;1264;22365;-83
2024/03/19 14:42:03;;;;;;;;;;;;;;;7.75;55.49;100984.80;111397;1267;23013;-83
2024/03/19 14:44:52;;;;;;;;;;;;;;;7.67;55.52;100979.95;111434;1264;22437;-82
2024/03/19 14:47:42;;;;;;;;;;;;;;;7.60;55.15;100975.55;111413;1261;22345;-82
2024/03/19 14:50:31;;;;;;;;;;;;;;;7.50;55.28;100973.69;111408;1261;22322;-82
2024/03/19 14:53:21;;;;;;;;;;;;;;;7.48;55.66;100974.14;111397;1267;23014;-82
2024/03/19 14:56:10;;;;;;;;;;;;;;;7.46;55.69;100979.91;111381;1264;22429;-82
2024/03/19 14:58:59;;;;;;;;;;;;;;;7.42;55.59;100978.13;111429;1261;22318;-82
2024/03/19 15:01:48;;;;;;;;;;;;;;;7.39;55.89;100971.63;111403;1257;22325;-82
2024/03/19 15:04:37;;;;;;;;;;;;;;;7.40;55.83;100973.20;111383;1257;22364;-82
2024/03/19 15:07:27;;;;;;;;;;;;;;;7.41;56.24;100974.65;111390;1260;22385;-83
2024/03/19 15:10:16;;;;;;;;;;;;;;;7.40;55.99;100981.37;111398;1260;22877;-83
2024/03/19 15:13:10;;;;;;;;;;;;;;;7.41;56.33;100978.33;111008;1268;320261;-82
2024/03/19 15:15:59;;;;;;;;;;;;;;;7.42;55.65;100982.04;111374;1268;22682;-82
2024/03/19 15:18:49;;;;;;;;;;;;;;;7.38;55.54;100983.02;111401;1269;22221;-83
2024/03/19 15:21:38;;;;;;;;;;;;;;;7.35;55.62;100981.64;111410;1268;22266;-83